Time;durP1;ratioP1;P1;durP2;ratioP2;P2;SDS_P1;SDS_P2;PMS_P1;PMS_P2;Temp;Humidity;BMP_temperature;BMP_pressure;BME280_temperature;BME280_humidity;BME280_pressure;Samples;Min_cycle;Max_cycle;Signal;HPM_P1;HPM_P2
2021/09/13 00:01:59;;;;;;;14.48;11.63;;;15.50;99.90;;;;;;6120447;23;20001;-74
2021/09/13 00:04:25;;;;;;;15.55;12.93;;;15.50;99.90;;;;;;6121912;23;20089;-76
2021/09/13 00:06:50;;;;;;;15.23;13.73;;;15.50;99.90;;;;;;6120842;23;20022;-75
2021/09/13 00:09:16;;;;;;;14.80;13.30;;;15.50;99.90;;;;;;6121650;23;20021;-76
2021/09/13 00:11:42;;;;;;;14.73;13.20;;;15.50;99.90;;;;;;6121971;23;20005;-75
2021/09/13 00:14:08;;;;;;;14.68;13.23;;;15.50;99.90;;;;;;6119665;23;20010;-75
2021/09/13 00:16:33;;;;;;;14.88;13.30;;;15.50;99.90;;;;;;6121700;23;20005;-75
2021/09/13 00:18:59;;;;;;;15.27;13.60;;;15.40;99.90;;;;;;6120248;23;20006;-75
2021/09/13 00:21:25;;;;;;;16.27;14.55;;;15.40;99.90;;;;;;6124391;23;20009;-75
2021/09/13 00:23:50;;;;;;;15.85;14.02;;;15.40;99.90;;;;;;6092991;23;20113;-75
2021/09/13 00:26:16;;;;;;;20.52;18.48;;;15.40;99.90;;;;;;6122878;23;20449;-75
2021/09/13 00:28:42;;;;;;;22.02;19.48;;;15.40;99.90;;;;;;6118164;23;20432;-75
2021/09/13 00:31:07;;;;;;;20.67;18.50;;;15.30;99.90;;;;;;6125244;23;20018;-75
2021/09/13 00:33:33;;;;;;;21.02;17.75;;;15.40;99.90;;;;;;6118694;23;20160;-75
2021/09/13 00:35:59;;;;;;;18.92;16.55;;;15.40;99.90;;;;;;6100796;23;20006;-75
2021/09/13 00:38:24;;;;;;;18.17;16.38;;;15.30;99.90;;;;;;6126304;23;20002;-75
2021/09/13 00:40:51;;;;;;;19.10;17.10;;;15.30;99.90;;;;;;6126124;23;20009;-74
2021/09/13 00:43:16;;;;;;;18.45;16.20;;;15.30;99.90;;;;;;6124273;23;20028;-75
2021/09/13 00:45:42;;;;;;;16.83;15.13;;;15.30;99.90;;;;;;6124737;23;20005;-75
2021/09/13 00:48:08;;;;;;;16.58;14.88;;;15.30;99.90;;;;;;6126125;23;20002;-75
2021/09/13 00:50:34;;;;;;;16.15;14.40;;;15.30;99.90;;;;;;6125499;23;20113;-75
2021/09/13 00:53:00;;;;;;;16.23;13.68;;;15.30;99.90;;;;;;6125509;23;20002;-74
2021/09/13 00:55:27;;;;;;;14.27;12.77;;;15.30;99.90;;;;;;6125168;23;20057;-74
2021/09/13 00:57:54;;;;;;;12.50;11.20;;;15.30;99.90;;;;;;6125321;23;20010;-74
2021/09/13 01:00:21;;;;;;;12.77;11.57;;;15.40;99.90;;;;;;6125622;23;20390;-75
2021/09/13 01:02:48;;;;;;;15.68;13.38;;;15.30;99.90;;;;;;6124116;23;20028;-75
2021/09/13 01:05:13;;;;;;;14.02;12.55;;;15.40;99.90;;;;;;6124961;23;20445;-75
2021/09/13 01:07:39;;;;;;;13.35;12.05;;;15.30;99.90;;;;;;6124857;23;20061;-75
2021/09/13 01:10:06;;;;;;;16.48;13.70;;;15.40;99.90;;;;;;6124730;23;20014;-75
2021/09/13 01:12:33;;;;;;;15.20;13.70;;;15.30;99.90;;;;;;6124586;23;20009;-75
2021/09/13 01:14:59;;;;;;;16.02;13.45;;;15.30;99.90;;;;;;6123646;23;20006;-76
2021/09/13 01:17:25;;;;;;;17.45;15.68;;;15.30;99.90;;;;;;6125156;23;20017;-76
2021/09/13 01:19:50;;;;;;;17.52;15.68;;;15.30;99.90;;;;;;6123794;23;20010;-74
2021/09/13 01:22:19;;;;;;;17.80;15.90;;;15.30;99.90;;;;;;6124969;23;20065;-76
2021/09/13 01:24:45;;;;;;;16.60;14.98;;;15.20;99.90;;;;;;6123490;23;20013;-74
2021/09/13 01:27:12;;;;;;;15.82;14.15;;;15.20;99.90;;;;;;6122955;23;20374;-74
2021/09/13 01:29:38;;;;;;;18.25;15.25;;;15.20;99.90;;;;;;6125942;23;20377;-75
2021/09/13 01:32:06;;;;;;;16.63;13.88;;;15.20;99.90;;;;;;6126559;23;19998;-74
2021/09/13 01:34:32;;;;;;;16.33;14.82;;;15.10;99.90;;;;;;6126489;23;20029;-74
2021/09/13 01:36:57;;;;;;;14.80;13.30;;;15.10;99.90;;;;;;6127324;23;20009;-75
2021/09/13 01:39:23;;;;;;;15.38;13.88;;;15.10;99.90;;;;;;6125740;23;20009;-75
2021/09/13 01:41:49;;;;;;;19.08;16.98;;;15.10;99.90;;;;;;6124455;23;20002;-74
2021/09/13 01:44:15;;;;;;;16.98;15.27;;;15.20;99.90;;;;;;6125560;23;20006;-75
2021/09/13 01:46:43;;;;;;;16.83;15.20;;;15.20;99.90;;;;;;6126286;23;20385;-75
2021/09/13 01:49:10;;;;;;;16.80;14.95;;;15.20;99.90;;;;;;6125346;23;20002;-75
2021/09/13 01:51:37;;;;;;;17.48;15.75;;;15.20;99.90;;;;;;6126110;23;20010;-75
2021/09/13 01:54:03;;;;;;;14.88;13.43;;;15.20;99.90;;;;;;6126960;23;20060;-75
2021/09/13 01:56:30;;;;;;;11.80;10.55;;;15.20;99.90;;;;;;6126802;23;20002;-75
2021/09/13 01:58:55;;;;;;;11.65;10.55;;;15.20;99.90;;;;;;6126637;23;20006;-75
2021/09/13 02:01:21;;;;;;;13.93;11.70;;;15.20;99.90;;;;;;6127073;23;20081;-75
2021/09/13 02:03:47;;;;;;;16.00;12.07;;;15.20;99.90;;;;;;6124980;23;20006;-74
2021/09/13 02:06:14;;;;;;;18.13;14.32;;;15.20;99.90;;;;;;6126927;23;20076;-74
2021/09/13 02:08:40;;;;;;;15.23;13.68;;;15.20;99.90;;;;;;6126939;23;19998;-76
2021/09/13 02:11:06;;;;;;;14.60;13.20;;;15.20;99.90;;;;;;6101436;23;20014;-75
2021/09/13 02:13:33;;;;;;;13.85;12.45;;;15.20;99.90;;;;;;6102767;23;20006;-75
2021/09/13 02:15:58;;;;;;;15.45;13.88;;;15.20;99.90;;;;;;6128060;23;20013;-75
2021/09/13 02:18:24;;;;;;;15.25;13.40;;;15.10;99.90;;;;;;6127549;23;20002;-75
2021/09/13 02:20:50;;;;;;;15.05;13.27;;;15.10;99.90;;;;;;6125821;23;20125;-76
2021/09/13 02:23:16;;;;;;;15.40;13.80;;;15.10;99.90;;;;;;6127695;23;20445;-75
2021/09/13 02:25:42;;;;;;;17.20;13.05;;;15.10;99.90;;;;;;6126434;23;20005;-75
2021/09/13 02:28:08;;;;;;;13.80;12.50;;;15.10;99.90;;;;;;6124928;23;20013;-75
2021/09/13 02:30:33;;;;;;;15.07;13.50;;;15.00;99.90;;;;;;6126530;23;20041;-75
2021/09/13 02:32:59;;;;;;;14.02;12.68;;;15.00;99.90;;;;;;6126940;23;20006;-75
2021/09/13 02:35:25;;;;;;;14.27;12.82;;;15.00;99.90;;;;;;6126280;23;20009;-75
2021/09/13 02:37:50;;;;;;;15.18;13.68;;;15.00;99.90;;;;;;6122732;23;20039;-74
2021/09/13 02:40:16;;;;;;;13.48;12.10;;;14.90;99.90;;;;;;6125255;23;20002;-75
2021/09/13 02:42:42;;;;;;;12.68;11.35;;;14.90;99.90;;;;;;6126830;23;20002;-75
2021/09/13 02:45:08;;;;;;;14.60;13.20;;;14.90;99.90;;;;;;6127216;23;20006;-74
2021/09/13 02:47:34;;;;;;;13.27;11.98;;;14.90;99.90;;;;;;6127032;23;20006;-75
2021/09/13 02:50:00;;;;;;;13.63;11.68;;;14.90;99.90;;;;;;6126850;23;20010;-76
2021/09/13 02:52:25;;;;;;;13.95;11.82;;;14.80;99.90;;;;;;6126884;23;20032;-75
2021/09/13 02:54:51;;;;;;;13.35;11.93;;;14.80;99.90;;;;;;6126819;23;20006;-75
2021/09/13 02:57:17;;;;;;;15.65;13.70;;;14.80;99.90;;;;;;6126334;23;20006;-76
2021/09/13 02:59:44;;;;;;;14.60;13.15;;;14.80;99.90;;;;;;6126460;23;20054;-75
2021/09/13 03:02:10;;;;;;;15.85;14.35;;;14.70;99.90;;;;;;6126338;23;20009;-75
2021/09/13 03:04:36;;;;;;;13.95;12.65;;;14.70;99.90;;;;;;6126177;23;20009;-75
2021/09/13 03:07:02;;;;;;;14.10;12.80;;;14.70;99.90;;;;;;6126654;23;20389;-76
2021/09/13 03:09:27;;;;;;;13.15;11.85;;;14.70;99.90;;;;;;6126873;23;20010;-75
2021/09/13 03:11:53;;;;;;;12.73;11.43;;;14.70;99.90;;;;;;6125953;23;20037;-76
2021/09/13 03:14:19;;;;;;;11.50;10.45;;;14.70;99.90;;;;;;6125266;23;20033;-76
2021/09/13 03:16:44;;;;;;;13.63;12.23;;;14.60;99.90;;;;;;6124684;23;20006;-76
2021/09/13 03:19:10;;;;;;;15.43;12.80;;;14.60;99.90;;;;;;6126340;23;20021;-75
2021/09/13 03:21:36;;;;;;;10.88;9.88;;;14.60;99.90;;;;;;6126490;23;20009;-75
2021/09/13 03:24:01;;;;;;;11.63;10.43;;;14.60;99.90;;;;;;6126635;23;20018;-75
2021/09/13 03:26:27;;;;;;;11.80;10.48;;;14.60;99.90;;;;;;6100247;23;20014;-75
2021/09/13 03:28:53;;;;;;;13.60;12.07;;;14.50;99.90;;;;;;6099370;23;20380;-75
2021/09/13 03:31:18;;;;;;;15.38;12.82;;;14.50;99.90;;;;;;6124010;23;20089;-74
2021/09/13 03:33:44;;;;;;;13.10;11.80;;;14.50;99.90;;;;;;6123466;23;20009;-75
2021/09/13 03:36:10;;;;;;;13.07;11.80;;;14.50;99.90;;;;;;6124475;23;20010;-75
2021/09/13 03:38:35;;;;;;;10.45;8.60;;;14.40;99.90;;;;;;6126139;23;20016;-74
2021/09/13 03:41:01;;;;;;;18.83;9.23;;;14.40;99.90;;;;;;6124768;23;19998;-75
2021/09/13 03:43:27;;;;;;;14.30;9.25;;;14.40;99.90;;;;;;6124880;23;20426;-75
2021/09/13 03:45:54;;;;;;;10.98;9.98;;;14.40;99.90;;;;;;6124555;23;20096;-75
2021/09/13 03:48:20;;;;;;;10.65;9.55;;;14.30;99.90;;;;;;6126142;23;20044;-75
2021/09/13 03:50:46;;;;;;;12.20;10.68;;;14.30;99.90;;;;;;6125956;23;20092;-74
2021/09/13 03:53:12;;;;;;;12.27;11.07;;;14.20;99.90;;;;;;6126110;23;20029;-74
2021/09/13 03:55:38;;;;;;;13.63;12.27;;;14.20;99.90;;;;;;6126163;23;20006;-74
2021/09/13 03:58:04;;;;;;;12.55;11.38;;;14.20;99.90;;;;;;6126440;23;20330;-74
2021/09/13 04:00:31;;;;;;;14.32;12.82;;;14.20;99.90;;;;;;6125192;23;20413;-74
2021/09/13 04:02:56;;;;;;;13.48;12.07;;;14.20;99.90;;;;;;6125725;23;20006;-75
2021/09/13 04:05:24;;;;;;;13.27;11.98;;;14.10;99.90;;;;;;6125181;23;20452;-74
2021/09/13 04:10:43;;;;;;;13.05;11.75;;;14.20;99.90;;;;;;6135078;23;20037;-75
2021/09/13 04:13:09;;;;;;;14.13;11.80;;;14.10;99.90;;;;;;6125239;23;20009;-74
2021/09/13 04:15:35;;;;;;;13.50;12.18;;;14.10;99.90;;;;;;6124703;23;20005;-75
2021/09/13 04:18:01;;;;;;;13.25;11.95;;;14.10;99.90;;;;;;6125626;23;20006;-76
2021/09/13 04:20:26;;;;;;;13.35;11.82;;;14.10;99.90;;;;;;6125778;23;20008;-75
2021/09/13 04:22:52;;;;;;;14.38;12.20;;;14.10;99.90;;;;;;6126109;23;20352;-76
2021/09/13 04:25:18;;;;;;;13.18;11.88;;;14.10;99.90;;;;;;6125277;23;20089;-76
2021/09/13 04:27:43;;;;;;;14.02;10.70;;;14.10;99.90;;;;;;6124501;23;20077;-75
2021/09/13 04:30:09;;;;;;;11.80;10.57;;;14.10;99.90;;;;;;6124475;23;20021;-75
2021/09/13 04:32:35;;;;;;;12.15;11.05;;;14.10;99.90;;;;;;6126268;23;20002;-75
2021/09/13 04:35:01;;;;;;;11.75;10.57;;;14.10;99.90;;;;;;6125841;23;20002;-75
2021/09/13 04:37:27;;;;;;;12.77;10.05;;;14.20;99.90;;;;;;6125717;23;20002;-75
2021/09/13 04:39:52;;;;;;;11.70;10.60;;;14.20;99.90;;;;;;6125011;23;20002;-75
2021/09/13 04:42:18;;;;;;;12.52;11.32;;;14.20;99.90;;;;;;6125238;23;20008;-74
2021/09/13 04:44:44;;;;;;;13.68;12.27;;;14.30;99.90;;;;;;6125996;23;20048;-74
2021/09/13 04:47:09;;;;;;;13.00;11.75;;;14.40;99.90;;;;;;6124755;23;20006;-74
2021/09/13 04:49:35;;;;;;;14.52;13.15;;;14.40;99.90;;;;;;6123995;23;20014;-74
2021/09/13 04:52:01;;;;;;;14.45;12.75;;;14.50;99.90;;;;;;6125134;23;20029;-74
2021/09/13 04:54:26;;;;;;;14.98;13.45;;;14.50;99.90;;;;;;6125316;23;20002;-75
2021/09/13 04:56:52;;;;;;;13.95;12.55;;;14.50;99.90;;;;;;6126120;23;20006;-74
2021/09/13 04:59:18;;;;;;;13.27;11.98;;;14.50;99.90;;;;;;6124849;23;20006;-75
2021/09/13 05:01:43;;;;;;;14.40;12.90;;;14.50;99.90;;;;;;6125205;23;20010;-75
2021/09/13 05:04:09;;;;;;;13.77;12.38;;;14.60;99.90;;;;;;6124567;23;20006;-73
2021/09/13 05:06:39;;;;;;;12.85;11.63;;;14.70;99.90;;;;;;6124018;23;20006;-76
2021/09/13 05:09:05;;;;;;;20.02;12.15;;;14.70;99.90;;;;;;6124681;23;20080;-74
2021/09/13 05:11:31;;;;;;;13.73;12.32;;;14.70;99.90;;;;;;6125377;23;20080;-76
2021/09/13 05:13:57;;;;;;;14.13;12.38;;;14.80;99.90;;;;;;6124532;23;20081;-75
2021/09/13 05:16:23;;;;;;;16.60;11.73;;;14.90;99.90;;;;;;6123960;23;20029;-75
2021/09/13 05:18:49;;;;;;;13.18;11.95;;;14.90;99.90;;;;;;6125942;23;20059;-75
2021/09/13 05:21:15;;;;;;;12.32;11.20;;;14.90;99.90;;;;;;6125754;23;20105;-76
2021/09/13 05:23:43;;;;;;;13.55;12.32;;;15.00;99.90;;;;;;6125875;23;20014;-76
2021/09/13 05:26:09;;;;;;;14.68;13.15;;;15.00;99.90;;;;;;6125500;23;20385;-76
2021/09/13 05:28:35;;;;;;;15.43;13.98;;;15.00;99.90;;;;;;6099344;23;20006;-75
2021/09/13 05:31:00;;;;;;;16.83;14.90;;;15.10;99.90;;;;;;6125494;23;20137;-75
2021/09/13 05:33:26;;;;;;;18.15;15.25;;;15.10;99.90;;;;;;6125846;23;20006;-74
2021/09/13 05:35:52;;;;;;;17.45;15.07;;;15.20;99.90;;;;;;6126070;23;20028;-75
2021/09/13 05:38:18;;;;;;;15.52;14.02;;;15.20;99.90;;;;;;6125541;23;20065;-75
2021/09/13 05:40:45;;;;;;;17.77;15.57;;;15.30;99.90;;;;;;6125196;23;20009;-75
2021/09/13 05:43:11;;;;;;;16.00;14.40;;;15.30;99.90;;;;;;6121910;23;20002;-75
2021/09/13 05:45:37;;;;;;;16.30;14.63;;;15.40;99.90;;;;;;6120445;23;20050;-75
2021/09/13 05:48:04;;;;;;;20.35;17.30;;;15.40;99.90;;;;;;6123813;23;20104;-76
2021/09/13 05:50:30;;;;;;;21.77;19.48;;;15.50;99.90;;;;;;6124606;23;20442;-75
2021/09/13 05:52:56;;;;;;;22.30;18.45;;;15.60;99.90;;;;;;6123985;23;20073;-75
2021/09/13 05:55:22;;;;;;;21.92;19.80;;;15.70;99.90;;;;;;6125640;23;20393;-75
2021/09/13 05:57:48;;;;;;;22.38;20.15;;;15.80;99.90;;;;;;6122328;23;20318;-75
2021/09/13 06:00:14;;;;;;;25.13;21.63;;;15.80;99.90;;;;;;6121825;23;20013;-75
2021/09/13 06:02:40;;;;;;;22.75;19.20;;;15.90;99.90;;;;;;6118253;23;20098;-75
2021/09/13 06:05:06;;;;;;;21.55;19.35;;;16.00;99.90;;;;;;6122901;23;20415;-75
2021/09/13 06:07:32;;;;;;;25.88;21.05;;;16.10;99.90;;;;;;6122683;23;20467;-75
2021/09/13 06:09:58;;;;;;;70.47;21.77;;;16.20;99.90;;;;;;6123645;23;20017;-75
2021/09/13 06:12:24;;;;;;;24.77;21.25;;;16.30;99.90;;;;;;6123464;23;20002;-75
2021/09/13 06:14:51;;;;;;;25.35;21.75;;;16.30;99.90;;;;;;6123538;23;20130;-75
2021/09/13 06:17:17;;;;;;;28.15;22.08;;;16.40;99.90;;;;;;6123537;23;20009;-76
2021/09/13 06:19:43;;;;;;;26.20;22.85;;;16.40;99.90;;;;;;6124875;23;20002;-75
2021/09/13 06:22:08;;;;;;;23.55;21.08;;;16.50;99.90;;;;;;6126315;23;20018;-75
2021/09/13 06:24:38;;;;;;;24.80;22.15;;;16.60;99.90;;;;;;6109002;23;20026;-75
2021/09/13 06:27:04;;;;;;;28.73;21.83;;;16.70;99.90;;;;;;6124380;23;20006;-75
2021/09/13 06:29:30;;;;;;;27.67;23.63;;;16.70;99.90;;;;;;6118212;23;20017;-75
2021/09/13 06:31:56;;;;;;;25.40;22.30;;;16.80;99.90;;;;;;6123397;23;20006;-76
2021/09/13 06:34:21;;;;;;;31.05;21.98;;;16.90;99.90;;;;;;6118033;23;20472;-75
2021/09/13 06:36:47;;;;;;;24.65;21.67;;;16.90;99.90;;;;;;6122067;23;20433;-77
2021/09/13 06:39:13;;;;;;;26.50;23.48;;;17.00;99.90;;;;;;6119076;23;20009;-75
2021/09/13 06:41:39;;;;;;;25.80;23.17;;;17.00;99.90;;;;;;6122282;23;20052;-76
2021/09/13 06:44:04;;;;;;;24.52;22.05;;;17.10;99.90;;;;;;6119570;23;20346;-76
2021/09/13 06:49:05;;;;;;;26.20;22.40;;;17.20;99.90;;;;;;6128531;23;20045;-76
2021/09/13 06:51:31;;;;;;;27.25;22.50;;;17.20;99.90;;;;;;6119757;23;20623;-76
2021/09/13 06:53:56;;;;;;;24.60;21.77;;;17.30;99.90;;;;;;6121788;23;20077;-76
2021/09/13 06:56:22;;;;;;;27.35;21.98;;;17.30;99.90;;;;;;6119233;23;20089;-76
2021/09/13 06:58:48;;;;;;;25.08;22.23;;;17.40;99.90;;;;;;6121988;23;19998;-76
2021/09/13 07:01:13;;;;;;;30.75;22.80;;;17.40;99.90;;;;;;6118313;23;20054;-76
2021/09/13 07:03:40;;;;;;;24.77;21.05;;;17.50;99.90;;;;;;6122885;23;20006;-75
2021/09/13 07:06:06;;;;;;;25.25;20.45;;;17.60;99.90;;;;;;6117612;23;21059;-76
2021/09/13 07:08:32;;;;;;;23.00;20.70;;;17.70;99.90;;;;;;6097725;23;20006;-76
2021/09/13 07:10:59;;;;;;;22.45;20.13;;;17.80;99.90;;;;;;6117374;23;20014;-76
2021/09/13 07:13:25;;;;;;;22.73;20.52;;;17.90;99.90;;;;;;6123125;23;20061;-76
2021/09/13 07:15:50;;;;;;;23.17;19.73;;;18.00;99.90;;;;;;6115800;23;20034;-76
2021/09/13 07:18:16;;;;;;;23.20;19.85;;;18.10;99.90;;;;;;6098014;23;20367;-76
2021/09/13 07:20:42;;;;;;;22.13;19.98;;;18.20;99.90;;;;;;6116508;23;20041;-76
2021/09/13 07:23:08;;;;;;;21.63;19.25;;;18.20;99.90;;;;;;6124263;23;20022;-76
2021/09/13 07:25:33;;;;;;;23.50;19.42;;;18.30;99.90;;;;;;6116379;23;20101;-76
2021/09/13 07:27:59;;;;;;;22.67;20.05;;;18.20;99.90;;;;;;6097052;23;20318;-76
2021/09/13 07:30:26;;;;;;;27.77;18.52;;;18.30;99.90;;;;;;6116389;23;20014;-75
2021/09/13 07:32:53;;;;;;;23.08;19.35;;;18.40;99.90;;;;;;6124004;23;20005;-76
2021/09/13 07:35:18;;;;;;;22.52;19.17;;;18.50;99.90;;;;;;6090398;23;20451;-76
2021/09/13 07:37:44;;;;;;;19.58;17.02;;;18.60;99.90;;;;;;6124277;23;20010;-77
2021/09/13 07:40:11;;;;;;;20.90;17.20;;;18.60;99.90;;;;;;6116605;23;20009;-75
2021/09/13 07:42:39;;;;;;;21.25;16.27;;;18.60;99.90;;;;;;6125202;23;20006;-75
2021/09/13 07:45:06;;;;;;;19.58;17.33;;;18.70;99.90;;;;;;6116233;23;20006;-75
2021/09/13 07:47:31;;;;;;;19.58;17.52;;;18.70;99.90;;;;;;6123441;23;20029;-76
2021/09/13 07:49:58;;;;;;;25.25;16.63;;;18.80;99.90;;;;;;6115091;23;20048;-75
2021/09/13 07:52:24;;;;;;;20.80;17.08;;;18.80;99.90;;;;;;6123645;23;20013;-76
2021/09/13 07:54:49;;;;;;;20.85;15.90;;;18.90;99.90;;;;;;6115596;23;20034;-76
2021/09/13 07:57:15;;;;;;;16.88;15.15;;;18.90;99.90;;;;;;6123868;23;20041;-76
2021/09/13 07:59:41;;;;;;;17.25;15.43;;;19.00;99.90;;;;;;6116940;23;20006;-76
2021/09/13 08:02:12;;;;;;;17.15;15.35;;;19.10;99.90;;;;;;6124310;23;20029;-76
2021/09/13 08:04:38;;;;;;;23.73;15.70;;;19.10;99.90;;;;;;6117340;23;20006;-75
2021/09/13 08:07:04;;;;;;;18.98;16.10;;;19.20;99.90;;;;;;6097675;23;20323;-76
2021/09/13 08:09:29;;;;;;;20.27;16.33;;;19.30;99.90;;;;;;6116747;23;20012;-75
2021/09/13 08:11:55;;;;;;;18.52;15.60;;;19.40;99.90;;;;;;6123371;23;20006;-76
2021/09/13 08:14:20;;;;;;;19.65;15.80;;;19.40;99.90;;;;;;6116298;23;20013;-75
2021/09/13 08:16:46;;;;;;;27.55;16.10;;;19.40;99.90;;;;;;6124391;23;20006;-76
2021/09/13 08:19:12;;;;;;;19.85;15.82;;;19.40;99.90;;;;;;6115870;23;20030;-75
2021/09/13 08:21:40;;;;;;;19.48;16.40;;;19.40;99.90;;;;;;6123155;23;20006;-76
2021/09/13 08:24:07;;;;;;;18.02;16.05;;;19.30;99.90;;;;;;6114708;23;20010;-75
2021/09/13 08:26:33;;;;;;;18.77;16.58;;;19.30;99.90;;;;;;6124159;23;20014;-76
2021/09/13 08:28:59;;;;;;;21.20;17.58;;;19.20;99.90;;;;;;6114501;23;20032;-75
2021/09/13 08:31:24;;;;;;;20.00;15.55;;;19.20;99.90;;;;;;6124622;23;20010;-75
2021/09/13 08:33:50;;;;;;;31.10;24.10;;;19.20;99.90;;;;;;6114037;23;20017;-76
2021/09/13 08:36:16;;;;;;;33.08;24.77;;;19.20;99.90;;;;;;6123300;23;20009;-75
2021/09/13 08:38:42;;;;;;;20.90;18.73;;;19.20;99.90;;;;;;6116059;23;20002;-75
2021/09/13 08:41:08;;;;;;;18.10;16.20;;;19.30;99.90;;;;;;6123599;23;20256;-75
2021/09/13 08:43:34;;;;;;;36.08;29.67;;;19.40;99.90;;;;;;6116221;23;20006;-75
2021/09/13 08:46:08;;;;;;;36.67;31.13;;;19.50;99.90;;;;;;6124051;23;20647;-75
2021/09/13 08:48:50;;;;;;;80.50;63.97;;;19.60;99.90;;;;;;6114677;23;20016;-74
2021/09/13 08:51:18;;;;;;;39.63;31.50;;;19.70;99.90;;;;;;6121721;23;20017;-75
2021/09/13 08:53:51;;;;;;;49.17;42.47;;;19.70;99.90;;;;;;6117307;23;20006;-76
2021/09/13 08:56:17;;;;;;;36.90;26.85;;;19.80;99.90;;;;;;6120222;23;20029;-76
2021/09/13 08:58:45;;;;;;;22.02;19.73;;;19.80;99.90;;;;;;6119011;23;20030;-75
2021/09/13 09:01:12;;;;;;;27.75;23.70;;;19.90;99.90;;;;;;6119219;23;20017;-75
2021/09/13 09:03:39;;;;;;;31.70;23.27;;;20.10;99.90;;;;;;6120008;23;20009;-75
2021/09/13 09:06:06;;;;;;;29.00;24.42;;;20.20;99.90;;;;;;6117164;23;20010;-75
2021/09/13 09:08:38;;;;;;;29.63;23.88;;;20.20;99.90;;;;;;6121499;23;20012;-75
2021/09/13 09:11:05;;;;;;;23.23;16.10;;;20.30;99.90;;;;;;6116683;23;20095;-75
2021/09/13 09:13:41;;;;;;;19.65;17.05;;;20.30;99.90;;;;;;6124077;23;20010;-75
2021/09/13 09:16:07;;;;;;;15.13;13.57;;;20.50;99.90;;;;;;6114705;23;20426;-75
2021/09/13 09:18:39;;;;;;;15.50;13.93;;;20.60;99.90;;;;;;6122979;23;20013;-75
2021/09/13 09:21:06;;;;;;;16.50;13.25;;;20.70;99.90;;;;;;6113577;23;20408;-75
2021/09/13 09:23:33;;;;;;;12.95;11.65;;;20.80;99.90;;;;;;6122086;23;20021;-75
2021/09/13 09:26:12;;;;;;;12.57;11.35;;;21.00;99.90;;;;;;6124208;23;20006;-75
2021/09/13 09:28:37;;;;;;;12.30;10.93;;;21.20;99.90;;;;;;6125451;23;20006;-74
2021/09/13 09:31:03;;;;;;;14.32;12.13;;;21.30;99.90;;;;;;6124105;23;20045;-75
2021/09/13 09:33:29;;;;;;;14.45;11.63;;;21.40;99.90;;;;;;6096630;23;20051;-75
2021/09/13 09:35:57;;;;;;;10.60;9.48;;;21.40;99.90;;;;;;6123573;23;20006;-75
2021/09/13 09:38:42;;;;;;;10.13;8.00;;;21.30;99.90;;;;;;6123588;23;20008;-75
2021/09/13 09:41:11;;;;;;;8.88;7.30;;;21.30;99.90;;;;;;6124623;23;20462;-75
2021/09/13 09:44:00;;;;;;;8.50;7.35;;;21.30;99.90;;;;;;6122769;23;20009;-75
2021/09/13 09:46:43;;;;;;;7.13;6.10;;;21.50;99.90;;;;;;6122816;23;20010;-75
2021/09/13 09:49:16;;;;;;;7.28;5.90;;;21.50;99.90;;;;;;6123614;23;20464;-75
2021/09/13 09:51:49;;;;;;;8.98;6.10;;;21.60;99.90;;;;;;6124189;23;20048;-75
2021/09/13 09:54:17;;;;;;;9.70;6.28;;;21.60;99.90;;;;;;6124099;23;20342;-75
2021/09/13 09:56:45;;;;;;;9.60;6.28;;;21.60;99.90;;;;;;6126216;23;20009;-75
2021/09/13 09:59:13;;;;;;;8.65;6.28;;;21.60;99.90;;;;;;6125877;23;20008;-74
2021/09/13 10:01:41;;;;;;;8.48;5.40;;;21.60;99.90;;;;;;6125347;23;20049;-75
2021/09/13 10:04:15;;;;;;;7.18;5.45;;;21.70;99.90;;;;;;6124949;23;20002;-75
2021/09/13 10:06:42;;;;;;;7.15;4.70;;;21.80;99.90;;;;;;6125686;23;20013;-75
2021/09/13 10:09:13;;;;;;;10.75;5.18;;;21.90;99.90;;;;;;6123144;23;20002;-76
2021/09/13 10:11:40;;;;;;;9.23;5.75;;;22.00;99.90;;;;;;6099203;23;20085;-76
2021/09/13 10:14:08;;;;;;;7.28;5.50;;;22.20;99.90;;;;;;6124914;23;20009;-76
2021/09/13 10:16:37;;;;;;;9.93;5.70;;;22.30;99.90;;;;;;6124221;23;20006;-76
2021/09/13 10:19:03;;;;;;;7.43;5.65;;;22.30;99.90;;;;;;6124244;23;20010;-76
2021/09/13 10:21:28;;;;;;;6.75;5.70;;;22.30;99.90;;;;;;6124744;23;19998;-76
2021/09/13 10:23:55;;;;;;;10.77;6.50;;;22.30;99.90;;;;;;6098844;23;20487;-76
2021/09/13 10:26:20;;;;;;;8.23;5.70;;;22.30;99.90;;;;;;6124117;23;20008;-76
2021/09/13 10:29:19;;;;;;;7.15;6.45;;;22.30;99.90;;;;;;6124146;23;20022;-76
2021/09/13 10:31:46;;;;;;;9.90;7.45;;;22.20;99.90;;;;;;6101569;23;20021;-76
2021/09/13 10:34:22;;;;;;;7.68;6.32;;;22.10;99.90;;;;;;6125467;23;20006;-76
2021/09/13 10:37:10;;;;;;;7.07;6.43;;;22.00;99.90;;;;;;6124465;23;20010;-76
2021/09/13 10:39:56;;;;;;;6.60;5.95;;;22.00;99.90;;;;;;6125819;23;20017;-76
2021/09/13 10:42:35;;;;;;;9.00;6.65;;;21.90;99.90;;;;;;6097684;23;20010;-76
2021/09/13 10:45:10;;;;;;;10.83;7.00;;;22.00;99.90;;;;;;6125099;23;20009;-76
2021/09/13 10:47:37;;;;;;;7.50;6.35;;;22.00;99.90;;;;;;6124545;23;20006;-77
2021/09/13 10:50:58;;;;;;;8.82;7.18;;;22.20;99.90;;;;;;6125015;23;20013;-76
2021/09/13 10:53:27;;;;;;;7.85;7.07;;;22.30;99.90;;;;;;6006487;23;20012;-76
2021/09/13 10:56:17;;;;;;;7.05;6.22;;;22.50;99.90;;;;;;6006689;23;20034;-76
2021/09/13 10:58:46;;;;;;;7.75;6.35;;;22.70;99.90;;;;;;6002988;23;20011;-76
2021/09/13 11:01:22;;;;;;;9.70;6.80;;;22.90;99.90;;;;;;6006213;23;20436;-76
2021/09/13 11:04:08;;;;;;;7.15;6.20;;;23.00;99.90;;;;;;6006679;23;20020;-76
2021/09/13 11:06:40;;;;;;;11.15;7.25;;;23.00;99.90;;;;;;6005994;23;20495;-76
2021/09/13 11:09:13;;;;;;;11.27;6.78;;;23.00;99.90;;;;;;6006515;23;20008;-76
2021/09/13 11:11:43;;;;;;;9.65;6.10;;;22.90;99.90;;;;;;6007464;23;20019;-76
2021/09/13 11:14:22;;;;;;;7.60;6.65;;;22.80;99.90;;;;;;6005958;23;20081;-76
2021/09/13 11:16:57;;;;;;;8.60;7.00;;;22.70;99.90;;;;;;6005925;23;20375;-76
2021/09/13 11:19:26;;;;;;;7.10;6.40;;;22.60;99.90;;;;;;6007197;23;20016;-76
2021/09/13 11:21:52;;;;;;;8.80;6.47;;;22.40;99.90;;;;;;5983034;23;20036;-76
2021/09/13 11:24:23;;;;;;;9.57;6.50;;;22.30;99.90;;;;;;6006773;23;20035;-76
2021/09/13 11:26:58;;;;;;;8.68;7.10;;;22.20;99.90;;;;;;6006884;23;20019;-76
2021/09/13 11:29:36;;;;;;;7.57;6.78;;;22.10;99.90;;;;;;6050105;23;20437;-76
2021/09/13 11:32:08;;;;;;;12.65;7.13;;;22.10;99.90;;;;;;6123699;23;20006;-76
2021/09/13 11:34:49;;;;;;;7.32;6.63;;;22.10;99.90;;;;;;6124738;23;20334;-76
2021/09/13 11:37:19;;;;;;;7.35;6.20;;;22.20;99.90;;;;;;6123964;23;20010;-76
2021/09/13 11:39:50;;;;;;;7.20;6.13;;;22.20;99.90;;;;;;6123954;23;20040;-77
2021/09/13 11:42:25;;;;;;;8.38;6.75;;;22.10;99.90;;;;;;6124335;23;20006;-76
2021/09/13 11:44:55;;;;;;;7.90;6.65;;;22.20;99.90;;;;;;6124442;23;20084;-76
2021/09/13 11:47:32;;;;;;;7.85;5.88;;;22.20;99.90;;;;;;6122869;23;20013;-75
2021/09/13 11:50:00;;;;;;;7.38;6.68;;;22.20;99.90;;;;;;6124199;23;20089;-76
2021/09/13 11:52:37;;;;;;;7.15;6.45;;;22.30;99.90;;;;;;6124564;23;20038;-76
2021/09/13 11:55:09;;;;;;;9.88;6.97;;;22.30;99.90;;;;;;6123270;23;20382;-76
2021/09/13 11:57:46;;;;;;;8.30;7.50;;;22.30;99.90;;;;;;6122958;23;20586;-75
2021/09/13 12:00:13;;;;;;;9.00;6.43;;;22.40;99.90;;;;;;6124037;23;20450;-76
2021/09/13 12:02:47;;;;;;;6.78;6.18;;;22.40;99.90;;;;;;6124683;23;20274;-76
2021/09/13 12:05:17;;;;;;;7.95;5.95;;;22.60;99.90;;;;;;6123403;23;20006;-76
2021/09/13 12:07:47;;;;;;;;;;;22.60;99.90;;;;;;6124992;23;20006;-76
2021/09/13 12:10:16;;;;;;;12.93;6.20;;;22.60;99.90;;;;;;6125043;23;19909;-74
2021/09/13 12:12:46;;;;;;;7.07;5.72;;;22.60;99.90;;;;;;6127167;23;20014;-75
2021/09/13 12:15:13;;;;;;;8.50;5.68;;;22.70;99.90;;;;;;6123501;23;20017;-79
2021/09/13 12:17:45;;;;;;;7.03;6.38;;;22.70;99.90;;;;;;6122081;23;20101;-75
2021/09/13 12:20:11;;;;;;;8.88;6.78;;;22.70;99.90;;;;;;6124097;23;20076;-76
2021/09/13 12:22:38;;;;;;;6.50;5.88;;;22.70;99.90;;;;;;6074618;23;20025;-73
2021/09/13 12:25:22;;;;;;;7.00;6.32;;;22.80;99.90;;;;;;6068027;23;20089;-73
2021/09/13 12:27:53;;;;;;;9.48;6.65;;;22.80;99.90;;;;;;6121640;23;20013;-74
2021/09/13 12:30:33;;;;;;;9.25;6.28;;;22.90;99.90;;;;;;6120039;23;20081;-72
2021/09/13 12:33:04;;;;;;;6.95;6.25;;;22.90;99.90;;;;;;6121147;23;20026;-74
2021/09/13 12:35:43;;;;;;;7.80;7.03;;;22.90;99.90;;;;;;6096592;23;20001;-73
2021/09/13 12:38:21;;;;;;;6.13;5.53;;;22.90;99.90;;;;;;6122566;23;20013;-73
2021/09/13 12:40:58;;;;;;;7.15;4.97;;;22.90;99.90;;;;;;6122100;23;20006;-74